In Rescue
 
Open Full Screen Window  High Contrast Mode
Wind Gusting 14 knots
11
January 22, 2020 6:53 PM EST
Present Weather: Light Snow
Weather Information
Wind Direction
  200 °
Wind Speed
  11 kt (13 mph)
Wind Gust
  14 kt (16 mph)
Altimeter
29.94 in
Visibility
4 SM
Temperature
-01° C
30° F
Dewpoint
-02° C
28° F
Humidity
93%
1hr Rain Fall
00.00 in.
24hr Rain Fall
00.00 in.
Sky Condition
Overcast @ 700 ft
IFR

METAR KSAW 222353Z AUTO 20011G14KT 4SM -SN OVC007 M01/M02 A2994 RMK AO2 T10131025 11013 21035

FAA Disclaimer: The data displayed is for advisory purposes only and is not to be used for flight planning or operations.